createdAt,value
2022-11-05T00:02:23.978Z,101630.81
2022-11-05T00:05:09.090Z,101624.16
2022-11-05T00:08:04.793Z,101631.19
2022-11-05T00:10:34.395Z,101633.16
2022-11-05T00:13:19.477Z,101619.41
2022-11-05T00:23:19.495Z,101639.28
2022-11-05T00:29:26.746Z,101649.91
2022-11-05T00:31:53.235Z,101648.22
2022-11-05T00:34:19.665Z,101649.78
2022-11-05T00:36:46.653Z,101650.56
2022-11-05T00:39:55.641Z,101651.31
2022-11-05T00:42:40.833Z,101657.13
2022-11-05T00:45:07.629Z,101663.13
2022-11-05T00:47:52.706Z,101665.50
2022-11-05T00:50:21.577Z,101671.69
2022-11-05T00:52:56.607Z,101677.50
2022-11-05T00:55:41.981Z,101680.47
2022-11-05T00:58:17.472Z,101681.28
2022-11-05T01:00:48.721Z,101686.34
2022-11-05T01:07:05.828Z,101693.84
2022-11-05T01:09:32.461Z,101686.91
2022-11-05T01:11:58.897Z,101691.91
2022-11-05T01:14:25.363Z,101696.31
2022-11-05T01:16:51.769Z,101694.63
2022-11-05T01:19:18.225Z,101702.09
2022-11-05T01:21:44.621Z,101707.88
2022-11-05T01:24:11.101Z,101705.47
2022-11-05T01:26:37.601Z,101696.34
2022-11-05T01:29:04.077Z,101701.53
2022-11-05T01:31:30.587Z,101700.09
2022-11-05T01:33:57.081Z,101698.22
2022-11-05T01:36:23.568Z,101707.88
2022-11-05T01:38:51.631Z,101711.22
2022-11-05T01:45:21.253Z,101713.25
2022-11-05T01:48:10.915Z,101718.56
2022-11-05T01:50:47.417Z,101709.91
2022-11-05T01:57:08.948Z,101716.28
2022-11-05T01:59:39.761Z,101709.25
2022-11-05T02:02:08.284Z,101708.25
2022-11-05T02:04:39.844Z,101703.03
2022-11-05T02:07:09.184Z,101697.63
2022-11-05T02:09:57.416Z,101693.38
2022-11-05T02:12:24.249Z,101690.53
2022-11-05T02:14:50.687Z,101697.75
2022-11-05T02:17:19.850Z,101687.84
2022-11-05T02:20:20.557Z,101690.19
2022-11-05T02:23:04.549Z,101690.53
2022-11-05T02:26:04.897Z,101689.38
2022-11-05T02:28:37.467Z,101683.97
2022-11-05T02:31:17.605Z,101681.53
2022-11-05T02:34:05.785Z,101681.91
2022-11-05T02:36:49.702Z,101688.66
2022-11-05T02:39:37.740Z,101691.81
2022-11-05T02:42:22.320Z,101691.81
2022-11-05T02:44:51.652Z,101692.81
2022-11-05T02:47:21.181Z,101690.81
2022-11-05T02:50:14.569Z,101693.78
2022-11-05T02:52:49.636Z,101686.94
2022-11-05T02:55:37.372Z,101685.50
2022-11-05T02:58:05.854Z,101683.69
2022-11-05T03:00:52.576Z,101691.81
2022-11-05T03:03:40.413Z,101686.94
2022-11-05T03:06:25.371Z,101678.94
2022-11-05T03:09:38.923Z,101681.91
2022-11-05T03:12:36.237Z,101682.09
2022-11-05T03:15:27.564Z,101680.47
2022-11-05T03:18:11.404Z,101683.00
2022-11-05T03:20:52.096Z,101688.31
2022-11-05T03:23:41.738Z,101687.69
2022-11-05T03:26:17.589Z,101689.84
2022-11-05T03:28:50.206Z,101696.06
2022-11-05T03:31:18.660Z,101694.59
2022-11-05T03:33:48.110Z,101689.91
2022-11-05T03:36:22.314Z,101696.75
2022-11-05T03:38:52.323Z,101696.94
2022-11-05T03:41:21.686Z,101703.78
2022-11-05T03:43:52.051Z,101692.53
2022-11-05T03:46:23.152Z,101693.34
2022-11-05T03:48:53.654Z,101692.59
2022-11-05T03:51:32.448Z,101690.00
2022-11-05T03:54:02.345Z,101701.88
2022-11-05T03:56:57.674Z,101702.06
2022-11-05T03:59:25.332Z,101701.47
2022-11-05T04:01:51.984Z,101708.09
2022-11-05T04:04:18.511Z,101706.13
2022-11-05T04:07:03.558Z,101704.94
2022-11-05T04:09:48.665Z,101705.88
2022-11-05T04:12:33.880Z,101711.72
2022-11-05T04:15:00.469Z,101714.16
2022-11-05T04:17:26.949Z,101715.78
2022-11-05T04:20:11.980Z,101710.72
2022-11-05T04:22:57.088Z,101711.63
2022-11-05T04:25:23.686Z,101716.44
2022-11-05T04:27:50.176Z,101730.63
2022-11-05T04:30:18.479Z,101716.22
2022-11-05T04:33:06.712Z,101716.59
2022-11-05T04:35:38.722Z,101714.47
2022-11-05T04:38:07.472Z,101712.56
2022-11-05T04:40:34.405Z,101715.28
2022-11-05T04:43:01.201Z,101717.69
2022-11-05T04:45:30.090Z,101721.94
2022-11-05T04:47:56.782Z,101717.53
2022-11-05T04:50:23.648Z,101722.56
2022-11-05T04:52:50.193Z,101724.44
2022-11-05T04:55:17.012Z,101724.72
2022-11-05T04:57:43.868Z,101731.78
2022-11-05T05:00:11.325Z,101726.44
2022-11-05T05:02:37.857Z,101729.50
2022-11-05T05:05:04.822Z,101727.97
2022-11-05T05:07:32.922Z,101726.97
2022-11-05T05:09:59.751Z,101727.59
2022-11-05T05:12:26.157Z,101725.22
2022-11-05T05:14:52.614Z,101722.03
2022-11-05T05:17:19.124Z,101721.66
2022-11-05T05:20:04.280Z,101724.16
2022-11-05T05:22:30.716Z,101717.38
2022-11-05T05:24:57.303Z,101728.72
2022-11-05T05:27:24.243Z,101718.00
2022-11-05T05:29:50.714Z,101721.97
2022-11-05T05:32:17.213Z,101721.72
2022-11-05T05:34:43.616Z,101722.47
2022-11-05T05:37:10.141Z,101720.63
2022-11-05T05:39:36.561Z,101726.59
2022-11-05T05:42:03.069Z,101720.47
2022-11-05T05:44:29.469Z,101728.06
2022-11-05T05:46:55.899Z,101734.66
2022-11-05T05:49:22.341Z,101736.03
2022-11-05T05:51:49.819Z,101738.19
2022-11-05T05:54:16.571Z,101743.59
2022-11-05T05:56:44.403Z,101737.16
2022-11-05T05:59:11.002Z,101743.56
2022-11-05T06:01:37.815Z,101756.81
2022-11-05T06:04:04.520Z,101750.34
2022-11-05T06:06:30.947Z,101757.53
2022-11-05T06:08:57.438Z,101755.09
2022-11-05T06:11:25.257Z,101759.53
2022-11-05T06:13:52.023Z,101759.53
2022-11-05T06:16:21.212Z,101759.16
2022-11-05T06:18:48.072Z,101759.59
2022-11-05T06:21:17.033Z,101764.84
2022-11-05T06:23:44.965Z,101771.88
2022-11-05T06:26:14.409Z,101768.25
2022-11-05T06:28:42.131Z,101765.47
2022-11-05T06:31:13.340Z,101765.09
2022-11-05T06:33:40.799Z,101762.72
2022-11-05T06:36:08.657Z,101756.94
2022-11-05T06:38:36.741Z,101761.44
2022-11-05T06:41:09.816Z,101767.38
2022-11-05T06:43:37.267Z,101773.50
2022-11-05T06:46:05.633Z,101771.56
2022-11-05T06:48:32.484Z,101767.84
2022-11-05T06:50:58.949Z,101768.72
2022-11-05T06:53:26.122Z,101768.34
2022-11-05T06:55:52.576Z,101775.81
2022-11-05T06:58:19.210Z,101781.69
2022-11-05T07:00:45.846Z,101792.16
2022-11-05T07:03:13.401Z,101784.91
2022-11-05T07:05:43.807Z,101793.78
2022-11-05T07:08:10.432Z,101783.75
2022-11-05T07:10:36.940Z,101791.41
2022-11-05T07:13:08.021Z,101789.78
2022-11-05T07:15:35.554Z,101791.78
2022-11-05T07:18:02.392Z,101788.16
2022-11-05T07:20:33.582Z,101797.63
2022-11-05T07:23:12.721Z,101799.06
2022-11-05T07:25:40.866Z,101791.63
2022-11-05T07:28:08.903Z,101788.63
2022-11-05T07:30:36.444Z,101787.88
2022-11-05T07:33:03.753Z,101787.50
2022-11-05T07:35:30.272Z,101788.75
2022-11-05T07:37:57.044Z,101786.75
2022-11-05T07:40:25.794Z,101789.63
2022-11-05T07:42:55.307Z,101798.53
2022-11-05T07:45:22.427Z,101793.38
2022-11-05T07:47:51.644Z,101800.47
2022-11-05T07:50:19.432Z,101804.16
2022-11-05T07:52:46.125Z,101806.19
2022-11-05T07:55:13.372Z,101799.19
2022-11-05T07:57:44.782Z,101800.84
2022-11-05T08:00:16.609Z,101806.13
2022-11-05T08:02:43.491Z,101800.13
2022-11-05T08:05:10.824Z,101804.59
2022-11-05T08:07:37.380Z,101807.06
2022-11-05T08:10:04.529Z,101806.69
2022-11-05T08:12:33.584Z,101809.34
2022-11-05T08:15:00.021Z,101810.19
2022-11-05T08:17:26.590Z,101803.97
2022-11-05T08:19:53.282Z,101805.25
2022-11-05T08:22:19.821Z,101805.66
2022-11-05T08:24:46.383Z,101799.25
2022-11-05T08:27:13.240Z,101801.69
2022-11-05T08:29:39.779Z,101797.28
2022-11-05T08:32:06.228Z,101800.50
2022-11-05T08:34:32.782Z,101802.13
2022-11-05T08:37:01.062Z,101802.56
2022-11-05T08:39:27.757Z,101800.97
2022-11-05T08:41:54.368Z,101797.50
2022-11-05T08:44:20.819Z,101801.16
2022-11-05T08:46:47.358Z,101808.44
2022-11-05T08:49:14.161Z,101809.84
2022-11-05T08:51:40.630Z,101809.44
2022-11-05T08:54:07.268Z,101811.06
2022-11-05T08:56:33.781Z,101805.22
2022-11-05T08:59:00.949Z,101805.41
2022-11-05T09:01:27.538Z,101815.09
2022-11-05T09:03:54.175Z,101812.06
2022-11-05T09:06:20.672Z,101815.09
2022-11-05T09:08:47.403Z,101811.06
2022-11-05T09:11:14.149Z,101810.25
2022-11-05T09:13:40.623Z,101809.63
2022-11-05T09:16:13.619Z,101809.84
2022-11-05T09:18:40.127Z,101798.69
2022-11-05T09:21:06.644Z,101810.03
2022-11-05T09:23:33.073Z,101802.94
2022-11-05T09:25:59.557Z,101804.75
2022-11-05T09:28:26.074Z,101808.38
2022-11-05T09:30:53.297Z,101809.38
2022-11-05T09:33:23.137Z,101813.97
2022-11-05T09:35:49.851Z,101807.06
2022-11-05T09:38:16.368Z,101815.75
2022-11-05T09:40:54.821Z,101817.69
2022-11-05T09:43:31.428Z,101816.25
2022-11-05T09:46:01.005Z,101823.75
2022-11-05T09:48:30.662Z,101820.69
2022-11-05T09:50:58.284Z,101823.25
2022-11-05T09:53:25.528Z,101823.22
2022-11-05T09:55:56.386Z,101819.50
2022-11-05T09:58:43.549Z,101820.88
2022-11-05T10:01:23.625Z,101822.84
2022-11-05T10:03:53.999Z,101825.59
2022-11-05T10:06:24.692Z,101831.19
2022-11-05T10:09:19.713Z,101828.53
2022-11-05T10:11:55.011Z,101826.56
2022-11-05T10:14:31.951Z,101828.03
2022-11-05T10:17:03.979Z,101822.09
2022-11-05T10:19:44.235Z,101828.78
2022-11-05T10:22:13.588Z,101831.94
2022-11-05T10:24:43.786Z,101833.06
2022-11-05T10:27:36.828Z,101839.03
2022-11-05T10:30:04.065Z,101842.06
2022-11-05T10:32:37.389Z,101839.19
2022-11-05T10:35:06.290Z,101838.91
2022-11-05T10:37:36.991Z,101835.59
2022-11-05T10:40:46.652Z,101836.84
2022-11-05T10:43:20.269Z,101835.59
2022-11-05T10:45:57.326Z,101841.91
2022-11-05T10:48:53.047Z,101827.47
2022-11-05T10:51:19.516Z,101831.84
2022-11-05T10:53:57.343Z,101833.13
2022-11-05T10:56:38.064Z,101832.13
2022-11-05T10:59:18.113Z,101837.16
2022-11-05T11:01:44.765Z,101838.19
2022-11-05T11:04:24.284Z,101835.66
2022-11-05T11:06:53.736Z,101847.25
2022-11-05T11:09:22.534Z,101837.50
2022-11-05T11:11:56.979Z,101846.00
2022-11-05T11:14:23.460Z,101839.69
2022-11-05T11:16:51.719Z,101834.63
2022-11-05T11:19:21.400Z,101839.47
2022-11-05T11:22:14.749Z,101839.81
2022-11-05T11:24:44.239Z,101837.31
2022-11-05T11:27:33.186Z,101838.94
2022-11-05T11:30:02.162Z,101835.75
2022-11-05T11:32:36.019Z,101831.28
2022-11-05T11:35:04.063Z,101835.91
2022-11-05T11:37:35.641Z,101835.44
2022-11-05T11:40:24.351Z,101837.88
2022-11-05T11:42:57.785Z,101845.00
2022-11-05T11:45:32.237Z,101839.69
2022-11-05T11:48:04.196Z,101837.94
2022-11-05T11:50:43.291Z,101833.84
2022-11-05T11:53:22.062Z,101843.50
2022-11-05T11:56:03.494Z,101829.28
2022-11-05T11:58:49.594Z,101828.47
2022-11-05T12:01:43.374Z,101827.53
2022-11-05T12:04:13.268Z,101817.53
2022-11-05T12:06:57.407Z,101819.16
2022-11-05T12:09:47.217Z,101817.66
2022-11-05T12:12:16.254Z,101817.53
2022-11-05T12:14:46.794Z,101818.94
2022-11-05T12:17:25.634Z,101821.63
2022-11-05T12:20:07.708Z,101820.41
2022-11-05T12:22:51.706Z,101825.00
2022-11-05T12:25:36.920Z,101818.00
2022-11-05T12:28:10.648Z,101817.66
2022-11-05T12:30:46.211Z,101807.91
2022-11-05T12:33:23.919Z,101804.53
2022-11-05T12:35:58.232Z,101800.28
2022-11-05T12:38:55.669Z,101800.81
2022-11-05T12:41:31.308Z,101792.47
2022-11-05T12:44:33.172Z,101796.38
2022-11-05T12:47:07.386Z,101797.41
2022-11-05T12:50:14.187Z,101798.22
2022-11-05T12:53:01.966Z,101805.34
2022-11-05T12:55:36.672Z,101794.78
2022-11-05T12:58:11.777Z,101796.84
2022-11-05T13:00:44.452Z,101788.56
2022-11-05T13:03:24.378Z,101795.56
2022-11-05T13:06:04.507Z,101785.44
2022-11-05T13:08:54.762Z,101777.41
2022-11-05T13:11:28.240Z,101784.53
2022-11-05T13:14:03.413Z,101786.97
2022-11-05T13:16:35.978Z,101771.91
2022-11-05T13:19:37.382Z,101766.38
2022-11-05T13:22:12.966Z,101763.28
2022-11-05T13:24:48.457Z,101754.75
2022-11-05T13:27:49.323Z,101741.88
2022-11-05T13:30:22.879Z,101753.03
2022-11-05T13:32:58.604Z,101735.91
2022-11-05T13:35:35.508Z,101735.09
2022-11-05T13:38:25.002Z,101734.28
2022-11-05T13:41:16.323Z,101744.06
2022-11-05T13:44:10.695Z,101738.97
2022-11-05T13:46:59.900Z,101744.50
2022-11-05T13:49:29.352Z,101737.81
2022-11-05T13:52:03.758Z,101733.44
2022-11-05T13:54:30.101Z,101740.28
2022-11-05T13:57:10.688Z,101732.69
2022-11-05T14:00:01.620Z,101737.63
2022-11-05T14:02:40.046Z,101735.31
2022-11-05T14:05:08.132Z,101734.63
2022-11-05T14:07:37.987Z,101738.88
2022-11-05T14:10:15.794Z,101746.22
2022-11-05T14:12:49.657Z,101750.59
2022-11-05T14:15:30.526Z,101751.03
2022-11-05T14:18:02.644Z,101747.59
2022-11-05T14:20:31.953Z,101747.00
2022-11-05T14:23:23.293Z,101753.22
2022-11-05T14:26:16.310Z,101748.59
2022-11-05T14:28:44.527Z,101753.31
2022-11-05T14:31:20.163Z,101748.97
2022-11-05T14:34:19.382Z,101754.91
2022-11-05T14:37:02.404Z,101742.84
2022-11-05T14:39:30.980Z,101743.38
2022-11-05T14:42:17.065Z,101746.34
2022-11-05T14:45:12.943Z,101748.50
2022-11-05T14:47:44.376Z,101745.75
2022-11-05T14:50:42.031Z,101732.19
2022-11-05T14:53:29.983Z,101746.84
2022-11-05T14:59:52.501Z,101741.88
2022-11-05T15:02:24.695Z,101739.47
2022-11-05T15:05:35.949Z,101748.41
2022-11-05T15:12:09.131Z,101742.19
2022-11-05T15:14:54.876Z,101737.97
2022-11-05T15:17:30.824Z,101737.16
2022-11-05T15:20:40.612Z,101734.75
2022-11-05T15:23:12.742Z,101744.50
2022-11-05T15:26:01.308Z,101730.72
2022-11-05T15:28:32.553Z,101736.44
2022-11-05T15:31:02.395Z,101740.53
2022-11-05T15:33:29.834Z,101734.09
2022-11-05T15:36:07.635Z,101731.88
2022-11-05T15:38:35.151Z,101728.88
2022-11-05T15:41:13.902Z,101729.31
2022-11-05T15:43:50.613Z,101726.09
2022-11-05T15:46:25.609Z,101724.72
2022-11-05T15:48:54.603Z,101722.50
2022-11-05T15:51:24.275Z,101722.16
2022-11-05T15:56:45.808Z,101714.91
2022-11-05T15:59:18.572Z,101713.53
2022-11-05T16:01:52.330Z,101712.13
2022-11-05T16:04:28.763Z,101718.44
2022-11-05T16:07:00.676Z,101716.44
2022-11-05T16:09:30.183Z,101709.78
2022-11-05T16:12:36.071Z,101708.13
2022-11-05T16:18:33.842Z,101709.00
2022-11-05T16:21:05.020Z,101708.63
2022-11-05T16:23:45.244Z,101714.94
2022-11-05T16:27:01.715Z,101708.28
2022-11-05T16:29:32.966Z,101701.41
2022-11-05T16:32:02.836Z,101694.53
2022-11-05T16:34:35.668Z,101693.72
2022-11-05T16:37:03.633Z,101694.16
2022-11-05T16:39:30.207Z,101691.75
2022-11-05T16:41:56.651Z,101689.31
2022-11-05T16:44:23.355Z,101695.84
2022-11-05T16:46:50.423Z,101699.50
2022-11-05T16:49:17.828Z,101712.09
2022-11-05T16:51:44.633Z,101700.72
2022-11-05T16:54:11.155Z,101700.94
2022-11-05T16:56:39.862Z,101701.75
2022-11-05T16:59:09.422Z,101715.75
2022-11-05T17:01:42.530Z,101704.59
2022-11-05T17:04:11.950Z,101696.91
2022-11-05T17:06:38.390Z,101699.78
2022-11-05T17:09:04.868Z,101700.00
2022-11-05T17:11:31.342Z,101703.66
2022-11-05T17:13:57.833Z,101698.59
2022-11-05T17:16:24.377Z,101699.63
2022-11-05T17:18:50.965Z,101702.25
2022-11-05T17:21:17.396Z,101694.34
2022-11-05T17:23:43.844Z,101696.16
2022-11-05T17:26:12.146Z,101696.97
2022-11-05T17:28:40.502Z,101696.16
2022-11-05T17:31:09.749Z,101707.53
2022-11-05T17:33:36.532Z,101702.03
2022-11-05T17:36:07.888Z,101697.56
2022-11-05T17:38:34.527Z,101696.97
2022-11-05T17:41:01.568Z,101698.00
2022-11-05T17:43:28.022Z,101706.94
2022-11-05T17:45:59.977Z,101711.19
2022-11-05T17:48:29.651Z,101709.34
2022-11-05T17:50:57.209Z,101720.69
2022-11-05T17:53:23.699Z,101728.38
2022-11-05T17:55:50.212Z,101726.34
2022-11-05T17:58:16.735Z,101732.44
2022-11-05T18:00:45.449Z,101725.31
2022-11-05T18:03:12.358Z,101732.44
2022-11-05T18:05:40.005Z,101733.22
2022-11-05T18:08:07.448Z,101738.28
2022-11-05T18:10:37.710Z,101730.38
2022-11-05T18:13:04.553Z,101723.50
2022-11-05T18:15:31.190Z,101719.25
2022-11-05T18:17:57.644Z,101715.22
2022-11-05T18:20:24.061Z,101718.06
2022-11-05T18:22:51.371Z,101714.84
2022-11-05T18:25:18.129Z,101709.78
2022-11-05T18:27:44.621Z,101704.50
2022-11-05T18:30:14.067Z,101696.81
2022-11-05T18:32:41.024Z,101699.66
2022-11-05T18:35:07.877Z,101701.50
2022-11-05T18:37:34.483Z,101701.50
2022-11-05T18:40:00.993Z,101702.53
2022-11-05T18:42:27.477Z,101703.13
2022-11-05T18:44:53.925Z,101695.22
2022-11-05T18:47:20.395Z,101692.34
2022-11-05T18:49:46.870Z,101684.66
2022-11-05T18:52:13.551Z,101689.94
2022-11-05T18:54:40.066Z,101684.44
2022-11-05T18:57:06.643Z,101679.97
2022-11-05T18:59:38.572Z,101681.81
2022-11-05T19:02:07.572Z,101684.66
2022-11-05T19:04:37.451Z,101680.19
2022-11-05T19:07:05.568Z,101672.50
2022-11-05T19:09:34.275Z,101667.25
2022-11-05T19:12:01.709Z,101664.59
2022-11-05T19:14:29.990Z,101665.63
2022-11-05T19:16:57.641Z,101668.25
2022-11-05T19:19:24.266Z,101668.84
2022-11-05T19:21:51.387Z,101637.22
2022-11-05T19:24:17.986Z,101633.56
2022-11-05T19:26:44.941Z,101618.78
2022-11-05T19:29:11.547Z,101618.66
2022-11-05T19:31:38.545Z,101620.72
2022-11-05T19:34:05.708Z,101621.13
2022-11-05T19:36:33.284Z,101624.44
2022-11-05T19:39:03.529Z,101629.75
2022-11-05T19:41:30.186Z,101625.50
2022-11-05T19:43:58.071Z,101633.41
2022-11-05T19:46:25.302Z,101636.63
2022-11-05T19:48:51.972Z,101629.31
2022-11-05T19:51:25.058Z,101633.56
2022-11-05T19:53:52.909Z,101633.34
2022-11-05T19:56:22.821Z,101625.22
2022-11-05T19:58:49.896Z,101630.50
2022-11-05T20:01:18.215Z,101640.22
2022-11-05T20:03:45.758Z,101625.00
2022-11-05T20:06:21.492Z,101628.44
2022-11-05T20:09:15.158Z,101617.91
2022-11-05T20:11:39.294Z,101631.31
2022-11-05T20:14:06.860Z,101636.78
2022-11-05T20:16:38.173Z,101624.06
2022-11-05T20:19:07.067Z,101615.56
2022-11-05T20:21:34.044Z,101619.22
2022-11-05T20:24:00.607Z,101619.22
2022-11-05T20:26:27.547Z,101620.03
2022-11-05T20:28:54.276Z,101611.31
2022-11-05T20:31:21.615Z,101611.09
2022-11-05T20:33:48.207Z,101613.72
2022-11-05T20:36:19.594Z,101619.22
2022-11-05T20:38:58.215Z,101614.75
2022-11-05T20:41:26.215Z,101610.50
2022-11-05T20:43:52.914Z,101610.72
2022-11-05T20:46:21.251Z,101613.34
2022-11-05T20:48:47.996Z,101608.31
2022-11-05T20:51:17.103Z,101604.28
2022-11-05T20:53:44.349Z,101613.19
2022-11-05T20:56:25.037Z,101602.88
2022-11-05T20:58:51.808Z,101610.41
2022-11-05T21:01:19.484Z,101618.97
2022-11-05T21:03:46.843Z,101620.22
2022-11-05T21:06:14.167Z,101618.03
2022-11-05T21:08:40.686Z,101621.09
2022-11-05T21:11:07.622Z,101624.16
2022-11-05T21:13:34.653Z,101618.72
2022-11-05T21:16:01.549Z,101618.13
2022-11-05T21:18:31.002Z,101621.19
2022-11-05T21:20:59.785Z,101623.00
2022-11-05T21:23:29.236Z,101620.81
2022-11-05T21:25:55.898Z,101622.41
2022-11-05T21:28:22.810Z,101617.38
2022-11-05T21:30:49.413Z,101618.59
2022-11-05T21:33:17.975Z,101618.59
2022-11-05T21:35:49.015Z,101615.59
2022-11-05T21:38:17.192Z,101620.84
2022-11-05T21:40:44.771Z,101616.56
2022-11-05T21:43:11.938Z,101609.41
2022-11-05T21:45:39.850Z,101608.19
2022-11-05T21:48:07.643Z,101602.69
2022-11-05T21:50:53.437Z,101604.31
2022-11-05T21:53:38.611Z,101606.72
2022-11-05T21:56:43.333Z,101604.69
2022-11-05T21:59:34.276Z,101594.16
2022-11-05T22:02:03.738Z,101594.16
2022-11-05T22:04:32.569Z,101585.25
2022-11-05T22:06:59.035Z,101584.22
2022-11-05T22:09:26.032Z,101581.59
2022-11-05T22:11:52.784Z,101590.28
2022-11-05T22:14:19.237Z,101594.53
2022-11-05T22:16:45.723Z,101591.09
2022-11-05T22:19:12.609Z,101593.13
2022-11-05T22:21:39.111Z,101588.91
2022-11-05T22:24:05.992Z,101588.09
2022-11-05T22:26:32.853Z,101578.56
2022-11-05T22:28:59.554Z,101570.88
2022-11-05T22:31:26.037Z,101558.97
2022-11-05T22:33:52.650Z,101554.50
2022-11-05T22:36:19.338Z,101546.59
2022-11-05T22:38:45.909Z,101545.38
2022-11-05T22:41:15.810Z,101555.91
2022-11-05T22:43:42.370Z,101557.50
2022-11-05T22:46:14.836Z,101556.50
2022-11-05T22:48:42.138Z,101559.94
2022-11-05T22:51:11.557Z,101560.94
2022-11-05T22:53:39.000Z,101559.34
2022-11-05T22:56:07.884Z,101561.16
2022-11-05T22:58:35.061Z,101557.50
2022-11-05T23:01:02.231Z,101563.38
2022-11-05T23:03:30.175Z,101553.22
2022-11-05T23:05:58.486Z,101557.44
2022-11-05T23:08:43.836Z,101551.16
2022-11-05T23:11:35.388Z,101545.31
2022-11-05T23:14:02.717Z,101538.00
2022-11-05T23:17:04.750Z,101534.56
2022-11-05T23:19:49.899Z,101531.91
2022-11-05T23:22:43.857Z,101533.16
2022-11-05T23:25:13.925Z,101534.19
2022-11-05T23:27:41.377Z,101542.28
2022-11-05T23:30:13.004Z,101531.19
2022-11-05T23:32:39.549Z,101521.28
2022-11-05T23:35:06.908Z,101517.84
2022-11-05T23:37:52.059Z,101518.06
2022-11-05T23:40:24.905Z,101529.03
2022-11-05T23:43:10.411Z,101526.84
2022-11-05T23:45:54.780Z,101525.22
2022-11-05T23:48:30.135Z,101536.19
2022-11-05T23:51:09.642Z,101536.78
2022-11-05T23:53:39.919Z,101522.59
2022-11-05T23:56:11.500Z,101523.97
2022-11-05T23:58:39.068Z,101514.25
